createdAt,value
2022-11-23T00:00:04.613Z,8.99
2022-11-23T00:02:26.784Z,9.00
2022-11-23T00:04:48.562Z,8.99
2022-11-23T00:07:10.465Z,9.03
2022-11-23T00:09:32.591Z,9.04
2022-11-23T00:11:54.521Z,9.05
2022-11-23T00:14:16.353Z,9.04
2022-11-23T00:19:17.434Z,9.07
2022-11-23T00:21:39.455Z,9.07
2022-11-23T00:24:01.896Z,9.08
2022-11-23T00:26:23.903Z,9.08
2022-11-23T00:28:46.349Z,9.09
2022-11-23T00:31:11.301Z,9.08
2022-11-23T00:33:33.779Z,9.09
2022-11-23T00:36:01.583Z,9.12
2022-11-23T00:38:25.574Z,9.13
2022-11-23T00:40:47.336Z,9.11
2022-11-23T00:43:09.906Z,9.09
2022-11-23T00:45:31.803Z,9.09
2022-11-23T00:47:53.970Z,9.12
2022-11-23T00:50:17.781Z,9.11
2022-11-23T00:52:39.686Z,9.13
2022-11-23T00:55:01.783Z,9.13
2022-11-23T00:57:23.577Z,9.14
2022-11-23T00:59:45.457Z,9.15
2022-11-23T01:02:07.418Z,9.16
2022-11-23T01:04:29.317Z,9.18
2022-11-23T01:06:59.373Z,9.18
2022-11-23T01:09:25.073Z,9.17
2022-11-23T01:11:46.862Z,9.17
2022-11-23T01:14:09.589Z,9.17
2022-11-23T01:16:39.100Z,9.18
2022-11-23T01:19:08.719Z,9.20
2022-11-23T01:21:33.069Z,9.20
2022-11-23T01:23:55.984Z,9.17
2022-11-23T01:26:18.564Z,9.17
2022-11-23T01:28:40.710Z,9.18
2022-11-23T01:31:10.879Z,9.19
2022-11-23T01:33:32.885Z,9.18
2022-11-23T01:35:54.730Z,9.18
2022-11-23T01:38:18.405Z,9.18
2022-11-23T01:40:42.722Z,9.19
2022-11-23T01:43:13.854Z,9.19
2022-11-23T01:46:04.005Z,9.19
2022-11-23T01:48:43.009Z,9.18
2022-11-23T01:51:30.951Z,9.18
2022-11-23T01:53:59.642Z,9.19
2022-11-23T01:56:31.029Z,9.18
2022-11-23T01:58:57.112Z,9.19
2022-11-23T02:01:19.631Z,9.20
2022-11-23T02:03:46.709Z,9.23
2022-11-23T02:06:17.161Z,9.24
2022-11-23T02:08:39.549Z,9.24
2022-11-23T02:11:01.976Z,9.25
2022-11-23T02:13:27.451Z,9.25
2022-11-23T02:15:51.057Z,9.24
2022-11-23T02:18:19.618Z,9.26
2022-11-23T02:20:46.041Z,9.25
2022-11-23T02:23:33.978Z,9.26
2022-11-23T02:26:09.629Z,9.26
2022-11-23T02:28:40.956Z,9.22
2022-11-23T02:31:03.324Z,9.20
2022-11-23T02:33:25.520Z,9.20
2022-11-23T02:35:59.047Z,9.23
2022-11-23T02:38:24.917Z,9.20
2022-11-23T02:40:47.050Z,9.21
2022-11-23T02:43:08.827Z,9.22
2022-11-23T02:46:13.365Z,9.25
2022-11-23T02:48:35.552Z,9.25
2022-11-23T02:50:58.789Z,9.25
2022-11-23T02:53:20.872Z,9.24
2022-11-23T02:55:42.697Z,9.28
2022-11-23T02:58:06.488Z,9.28
2022-11-23T03:00:28.499Z,9.28
2022-11-23T03:02:50.375Z,9.30
2022-11-23T03:05:12.216Z,9.32
2022-11-23T03:07:34.139Z,9.31
2022-11-23T03:09:56.026Z,9.32
2022-11-23T03:12:17.967Z,9.31
2022-11-23T03:14:39.938Z,9.32
2022-11-23T03:17:01.809Z,9.33
2022-11-23T03:19:29.030Z,9.33
2022-11-23T03:21:51.167Z,9.33
2022-11-23T03:24:12.984Z,9.34
2022-11-23T03:26:34.856Z,9.34
2022-11-23T03:29:05.484Z,9.34
2022-11-23T03:31:27.449Z,9.34
2022-11-23T03:33:49.500Z,9.34
2022-11-23T03:36:11.515Z,9.34
2022-11-23T03:38:37.394Z,9.34
2022-11-23T03:41:05.965Z,9.33
2022-11-23T03:43:37.965Z,9.33
2022-11-23T03:45:59.701Z,9.32
2022-11-23T03:48:21.924Z,9.34
2022-11-23T03:50:45.244Z,9.33
2022-11-23T03:53:07.547Z,9.32
2022-11-23T03:55:29.510Z,9.32
2022-11-23T03:57:53.758Z,9.35
2022-11-23T04:00:16.676Z,9.33
2022-11-23T04:02:42.762Z,9.33
2022-11-23T04:05:24.545Z,9.32
2022-11-23T04:08:05.313Z,9.32
2022-11-23T04:10:27.191Z,9.31
2022-11-23T04:13:05.719Z,9.30
2022-11-23T04:15:27.585Z,9.30
2022-11-23T04:17:49.536Z,9.29
2022-11-23T04:20:12.688Z,9.26
2022-11-23T04:22:34.608Z,9.26
2022-11-23T04:24:56.999Z,9.26
2022-11-23T04:27:19.008Z,9.28
2022-11-23T04:29:40.789Z,9.29
2022-11-23T04:32:02.613Z,9.31
2022-11-23T04:34:24.434Z,9.33
2022-11-23T04:36:48.327Z,9.32
2022-11-23T04:39:12.795Z,9.33
2022-11-23T04:41:53.809Z,9.29
2022-11-23T04:44:15.943Z,9.28
2022-11-23T04:46:38.548Z,9.28
2022-11-23T04:49:04.937Z,9.31
2022-11-23T04:51:26.782Z,9.28
2022-11-23T04:53:50.293Z,9.29
2022-11-23T04:56:12.395Z,9.29
2022-11-23T04:58:36.678Z,9.30
2022-11-23T05:00:59.694Z,9.29
2022-11-23T05:03:22.833Z,9.26
2022-11-23T05:05:44.805Z,9.26
2022-11-23T05:08:08.188Z,9.28
2022-11-23T05:10:53.092Z,9.27
2022-11-23T05:13:15.353Z,9.25
2022-11-23T05:15:38.485Z,9.24
2022-11-23T05:18:07.108Z,9.23
2022-11-23T05:20:30.522Z,9.24
2022-11-23T05:22:52.682Z,9.23
2022-11-23T05:25:18.397Z,9.21
2022-11-23T05:27:43.995Z,9.21
2022-11-23T05:30:07.915Z,9.21
2022-11-23T05:32:29.714Z,9.24
2022-11-23T05:34:53.126Z,9.21
2022-11-23T05:37:15.005Z,9.21
2022-11-23T05:39:45.823Z,9.19
2022-11-23T05:42:09.411Z,9.19
2022-11-23T05:44:34.102Z,9.22
2022-11-23T05:46:56.123Z,9.19
2022-11-23T05:49:18.182Z,9.17
2022-11-23T05:51:40.243Z,9.17
2022-11-23T05:54:02.941Z,9.20
2022-11-23T05:56:40.459Z,9.17
2022-11-23T05:59:14.020Z,9.15
2022-11-23T06:01:38.582Z,9.16
2022-11-23T06:04:03.517Z,9.16
2022-11-23T06:06:30.935Z,9.16
2022-11-23T06:08:53.379Z,9.14
2022-11-23T06:11:15.376Z,9.12
2022-11-23T06:13:37.263Z,9.11
2022-11-23T06:15:59.133Z,9.12
2022-11-23T06:18:28.326Z,9.09
2022-11-23T06:20:50.245Z,9.08
2022-11-23T06:23:12.285Z,9.03
2022-11-23T06:25:35.174Z,8.99
2022-11-23T06:28:11.170Z,9.00
2022-11-23T06:30:37.462Z,8.99
2022-11-23T06:33:05.456Z,8.97
2022-11-23T06:35:33.461Z,8.97
2022-11-23T06:37:55.318Z,8.96
2022-11-23T06:40:18.223Z,8.94
2022-11-23T06:42:40.427Z,8.95
2022-11-23T06:45:12.747Z,8.95
2022-11-23T06:47:34.872Z,8.97
2022-11-23T06:49:56.809Z,8.97
2022-11-23T06:52:22.596Z,8.95
2022-11-23T06:54:46.369Z,8.95
2022-11-23T06:57:10.336Z,8.93
2022-11-23T06:59:32.610Z,8.92
2022-11-23T07:01:54.634Z,8.93
2022-11-23T07:04:16.707Z,8.93
2022-11-23T07:06:43.018Z,8.95
2022-11-23T07:09:14.656Z,8.95
2022-11-23T07:11:48.363Z,8.95
2022-11-23T07:14:12.876Z,8.95
2022-11-23T07:16:37.717Z,8.97
2022-11-23T07:18:59.537Z,8.98
2022-11-23T07:21:21.387Z,8.99
2022-11-23T07:23:44.323Z,9.01
2022-11-23T07:26:07.836Z,9.00
2022-11-23T07:28:29.808Z,8.99
2022-11-23T07:30:52.436Z,9.00
2022-11-23T07:33:15.697Z,9.00
2022-11-23T07:35:40.080Z,9.03
2022-11-23T07:38:03.084Z,9.03
2022-11-23T07:40:25.198Z,9.04
2022-11-23T07:42:47.040Z,9.06
2022-11-23T07:45:11.320Z,9.08
2022-11-23T07:47:35.882Z,9.09
2022-11-23T07:49:57.787Z,9.08
2022-11-23T07:52:19.639Z,9.05
2022-11-23T07:54:41.467Z,9.02
2022-11-23T07:57:03.508Z,8.99
2022-11-23T07:59:25.319Z,9.00
2022-11-23T08:01:51.210Z,9.03
2022-11-23T08:04:15.049Z,9.03
2022-11-23T08:06:36.833Z,9.02
2022-11-23T08:08:59.551Z,9.04
2022-11-23T08:11:22.328Z,9.04
2022-11-23T08:13:45.023Z,9.06
2022-11-23T08:16:07.210Z,9.08
2022-11-23T08:18:29.610Z,9.08
2022-11-23T08:20:51.647Z,9.09
2022-11-23T08:23:13.456Z,9.09
2022-11-23T08:25:35.376Z,9.08
2022-11-23T08:27:59.812Z,9.10
2022-11-23T08:30:21.617Z,9.12
2022-11-23T08:32:43.437Z,9.14
2022-11-23T08:35:06.350Z,9.18
2022-11-23T08:37:28.346Z,9.18
2022-11-23T08:39:50.231Z,9.17
2022-11-23T08:42:11.994Z,9.21
2022-11-23T08:44:34.269Z,9.21
2022-11-23T08:46:56.591Z,9.26
2022-11-23T08:49:18.497Z,9.29
2022-11-23T08:51:41.124Z,9.30
2022-11-23T08:54:04.324Z,9.32
2022-11-23T08:56:26.179Z,9.31
2022-11-23T08:58:48.281Z,9.33
2022-11-23T09:01:15.939Z,9.33
2022-11-23T09:03:39.051Z,9.37
2022-11-23T09:06:01.407Z,9.39
2022-11-23T09:08:23.267Z,9.41
2022-11-23T09:10:45.090Z,9.42
2022-11-23T09:13:06.958Z,9.49
2022-11-23T09:15:28.809Z,9.53
2022-11-23T09:17:50.614Z,9.53
2022-11-23T09:20:13.103Z,9.53
2022-11-23T09:22:34.965Z,9.55
2022-11-23T09:24:56.866Z,9.58
2022-11-23T09:27:19.394Z,9.65
2022-11-23T09:29:41.226Z,9.69
2022-11-23T09:32:03.760Z,9.70
2022-11-23T09:34:25.693Z,9.72
2022-11-23T09:36:48.151Z,9.75
2022-11-23T09:39:11.306Z,9.79
2022-11-23T09:42:06.530Z,9.89
2022-11-23T09:44:53.750Z,9.89
2022-11-23T09:47:34.099Z,9.92
2022-11-23T09:50:08.108Z,9.91
2022-11-23T09:52:31.637Z,9.92
2022-11-23T09:55:00.519Z,9.92
2022-11-23T09:57:29.861Z,9.94
2022-11-23T10:00:03.001Z,9.99
2022-11-23T10:02:31.562Z,10.01
2022-11-23T10:04:53.867Z,10.06
2022-11-23T10:07:24.470Z,10.12
2022-11-23T10:10:13.419Z,10.14
2022-11-23T10:12:55.206Z,10.15
2022-11-23T10:15:33.872Z,10.16
2022-11-23T10:18:14.028Z,10.23
2022-11-23T10:20:56.565Z,10.27
2022-11-23T10:23:36.495Z,10.25
2022-11-23T10:25:58.482Z,10.29
2022-11-23T10:28:24.439Z,10.40
2022-11-23T10:31:07.390Z,10.48
2022-11-23T10:33:37.974Z,10.56
2022-11-23T10:35:59.829Z,10.58
2022-11-23T10:38:26.328Z,10.62
2022-11-23T10:41:09.894Z,10.66
2022-11-23T10:44:18.835Z,10.70
2022-11-23T10:46:41.359Z,10.77
2022-11-23T10:49:29.286Z,10.87
2022-11-23T10:52:07.182Z,10.88
2022-11-23T10:54:40.943Z,10.92
2022-11-23T10:57:33.815Z,10.99
2022-11-23T11:00:17.997Z,11.06
2022-11-23T11:02:42.417Z,11.05
2022-11-23T11:06:07.500Z,11.08
2022-11-23T11:08:26.111Z,11.11
2022-11-23T11:11:17.301Z,11.17
2022-11-23T11:13:46.147Z,11.23
2022-11-23T11:16:19.561Z,11.24
2022-11-23T11:18:41.418Z,11.27
2022-11-23T11:21:08.432Z,11.30
2022-11-23T11:23:32.666Z,11.29
2022-11-23T11:26:06.994Z,11.30
2022-11-23T11:28:44.119Z,11.30
2022-11-23T11:31:30.215Z,11.31
2022-11-23T11:33:58.050Z,11.34
2022-11-23T11:36:22.835Z,11.37
2022-11-23T11:39:17.219Z,11.39
2022-11-23T11:41:37.245Z,11.38
2022-11-23T11:44:16.122Z,11.40
2022-11-23T11:46:47.672Z,11.41
2022-11-23T11:49:21.685Z,11.39
2022-11-23T11:51:52.948Z,11.32
2022-11-23T11:54:43.369Z,11.29
2022-11-23T11:57:47.552Z,11.27
2022-11-23T12:00:20.217Z,11.25
2022-11-23T12:03:14.934Z,11.31
2022-11-23T12:05:49.027Z,11.37
2022-11-23T12:08:58.720Z,11.49
2022-11-23T12:11:20.702Z,11.56
2022-11-23T12:13:46.937Z,11.62
2022-11-23T12:17:30.916Z,11.72
2022-11-23T12:20:08.284Z,11.74
2022-11-23T12:23:14.953Z,11.79
2022-11-23T12:25:58.781Z,11.71
2022-11-23T12:28:47.994Z,11.68
2022-11-23T12:31:33.943Z,11.65
2022-11-23T12:33:58.731Z,11.64
2022-11-23T12:37:16.917Z,11.61
2022-11-23T12:40:12.294Z,11.62
2022-11-23T12:42:52.792Z,11.66
2022-11-23T12:45:41.939Z,11.71
2022-11-23T12:48:12.699Z,11.76
2022-11-23T12:50:58.390Z,11.82
2022-11-23T12:53:54.367Z,11.87
2022-11-23T12:56:38.328Z,11.88
2022-11-23T12:59:01.027Z,11.86
2022-11-23T13:01:32.438Z,11.84
2022-11-23T13:04:47.791Z,11.79
2022-11-23T13:08:07.102Z,11.70
2022-11-23T13:10:45.480Z,11.66
2022-11-23T13:13:40.873Z,11.64
2022-11-23T13:16:54.467Z,11.60
2022-11-23T13:19:25.547Z,11.61
2022-11-23T13:21:48.379Z,11.67
2022-11-23T13:24:38.386Z,11.69
2022-11-23T13:27:15.575Z,11.70
2022-11-23T13:30:00.497Z,11.68
2022-11-23T13:32:42.309Z,11.62
2022-11-23T13:35:24.946Z,11.58
2022-11-23T13:38:01.710Z,11.55
2022-11-23T13:40:29.197Z,11.56
2022-11-23T13:43:09.780Z,11.54
2022-11-23T13:45:36.890Z,11.49
2022-11-23T13:48:19.448Z,11.47
2022-11-23T13:50:48.310Z,11.43
2022-11-23T13:53:35.580Z,11.41
2022-11-23T13:56:22.028Z,11.34
2022-11-23T13:58:53.688Z,11.30
2022-11-23T14:02:00.368Z,11.26
2022-11-23T14:04:25.453Z,11.21
2022-11-23T14:06:58.257Z,11.14
2022-11-23T14:09:44.318Z,11.12
2022-11-23T14:12:12.338Z,11.12
2022-11-23T14:14:43.417Z,11.12
2022-11-23T14:17:36.250Z,11.09
2022-11-23T14:20:25.407Z,11.08
2022-11-23T14:23:29.693Z,11.03
2022-11-23T14:26:15.066Z,10.92
2022-11-23T14:29:26.943Z,10.77
2022-11-23T14:32:36.831Z,10.56
2022-11-23T14:35:21.152Z,10.44
2022-11-23T14:38:33.445Z,10.34
2022-11-23T14:41:12.980Z,10.26
2022-11-23T14:43:42.524Z,10.19
2022-11-23T14:46:07.337Z,10.14
2022-11-23T14:48:32.440Z,10.09
2022-11-23T14:51:11.762Z,9.99
2022-11-23T14:53:46.461Z,9.92
2022-11-23T14:56:39.092Z,9.86
2022-11-23T14:59:25.004Z,9.78
2022-11-23T15:02:36.380Z,9.73
2022-11-23T15:05:26.892Z,9.68
2022-11-23T15:07:57.541Z,9.62
2022-11-23T15:10:56.625Z,9.62
2022-11-23T15:13:26.428Z,9.59
2022-11-23T15:15:52.909Z,9.56
2022-11-23T15:18:35.466Z,9.53
2022-11-23T15:21:03.635Z,9.51
2022-11-23T15:23:35.288Z,9.47
2022-11-23T15:26:02.557Z,9.40
2022-11-23T15:28:31.333Z,9.39
2022-11-23T15:30:58.307Z,9.38
2022-11-23T15:33:23.790Z,9.37
2022-11-23T15:35:46.978Z,9.37
2022-11-23T15:38:20.489Z,9.32
2022-11-23T15:40:48.939Z,9.32
2022-11-23T15:43:29.150Z,9.32
2022-11-23T15:45:51.030Z,9.30
2022-11-23T15:48:18.522Z,9.29
2022-11-23T15:51:02.974Z,9.28
2022-11-23T15:53:30.073Z,9.26
2022-11-23T15:55:54.054Z,9.25
2022-11-23T15:58:20.480Z,9.26
2022-11-23T16:00:55.317Z,9.25
2022-11-23T16:03:35.897Z,9.21
2022-11-23T16:06:13.266Z,9.18
2022-11-23T16:08:37.243Z,9.16
2022-11-23T16:10:59.148Z,9.15
2022-11-23T16:13:39.386Z,9.17
2022-11-23T16:16:09.000Z,9.17
2022-11-23T16:18:32.699Z,9.18
2022-11-23T16:21:03.020Z,9.17
2022-11-23T16:23:35.086Z,9.11
2022-11-23T16:26:06.000Z,9.09
2022-11-23T16:28:38.016Z,9.04
2022-11-23T16:31:01.190Z,9.04
2022-11-23T16:33:23.869Z,9.02
2022-11-23T16:35:47.239Z,9.03
2022-11-23T16:38:09.239Z,8.99
2022-11-23T16:40:31.495Z,8.95
2022-11-23T16:42:54.025Z,8.94
2022-11-23T16:45:16.001Z,8.91
2022-11-23T16:47:52.055Z,8.91
2022-11-23T16:50:14.090Z,8.88
2022-11-23T16:52:39.270Z,8.89
2022-11-23T16:55:01.067Z,8.90
2022-11-23T16:57:33.451Z,8.91
2022-11-23T16:59:56.131Z,8.91
2022-11-23T17:02:18.798Z,8.90
2022-11-23T17:04:40.734Z,8.91
2022-11-23T17:07:02.688Z,8.92
2022-11-23T17:09:24.695Z,8.93
2022-11-23T17:11:50.353Z,8.92
2022-11-23T17:14:19.314Z,8.92
2022-11-23T17:16:43.128Z,8.91
2022-11-23T17:19:16.859Z,8.90
2022-11-23T17:21:38.708Z,8.91
2022-11-23T17:24:01.277Z,8.92
2022-11-23T17:26:34.081Z,8.92
2022-11-23T17:28:56.302Z,8.91
2022-11-23T17:31:18.233Z,8.91
2022-11-23T17:33:40.270Z,8.91
2022-11-23T17:36:02.069Z,8.92
2022-11-23T17:38:26.758Z,8.93
2022-11-23T17:40:48.538Z,8.93
2022-11-23T17:43:14.880Z,8.92
2022-11-23T17:45:37.388Z,8.92
2022-11-23T17:48:03.272Z,8.90
2022-11-23T17:50:28.737Z,8.89
2022-11-23T17:52:51.374Z,8.85
2022-11-23T17:55:14.710Z,8.84
2022-11-23T17:57:36.774Z,8.84
2022-11-23T18:00:02.197Z,8.87
2022-11-23T18:02:33.589Z,8.84
2022-11-23T18:04:56.357Z,8.84
2022-11-23T18:07:18.757Z,8.87
2022-11-23T18:09:41.272Z,8.88
2022-11-23T18:12:03.279Z,8.90
2022-11-23T18:14:28.753Z,8.90
2022-11-23T18:16:50.836Z,8.91
2022-11-23T18:19:14.307Z,8.91
2022-11-23T18:21:36.149Z,8.90
2022-11-23T18:24:04.151Z,8.89
2022-11-23T18:26:27.259Z,8.88
2022-11-23T18:28:50.052Z,8.87
2022-11-23T18:31:12.655Z,8.84
2022-11-23T18:33:34.683Z,8.80
2022-11-23T18:36:00.660Z,8.77
2022-11-23T18:38:26.843Z,8.75
2022-11-23T18:40:48.808Z,8.73
2022-11-23T18:43:10.846Z,8.71
2022-11-23T18:45:32.895Z,8.66
2022-11-23T18:47:55.089Z,8.65
2022-11-23T18:50:17.314Z,8.63
2022-11-23T18:52:39.088Z,8.61
2022-11-23T18:55:00.915Z,8.57
2022-11-23T18:57:22.953Z,8.56
2022-11-23T19:00:01.330Z,8.55
2022-11-23T19:02:23.953Z,8.51
2022-11-23T19:04:45.846Z,8.49
2022-11-23T19:07:07.771Z,8.46
2022-11-23T19:09:29.787Z,8.43
2022-11-23T19:11:51.740Z,8.38
2022-11-23T19:14:13.950Z,8.33
2022-11-23T19:16:35.848Z,8.30
2022-11-23T19:18:58.740Z,8.27
2022-11-23T19:21:24.170Z,8.26
2022-11-23T19:23:54.349Z,8.22
2022-11-23T19:26:16.961Z,8.20
2022-11-23T19:28:40.120Z,8.18
2022-11-23T19:31:24.520Z,8.15
2022-11-23T19:33:48.488Z,8.11
2022-11-23T19:36:14.334Z,8.09
2022-11-23T19:38:36.458Z,8.05
2022-11-23T19:40:58.378Z,8.05
2022-11-23T19:43:20.253Z,8.04
2022-11-23T19:45:42.069Z,8.02
2022-11-23T19:48:04.005Z,8.04
2022-11-23T19:50:25.972Z,8.02
2022-11-23T19:53:11.231Z,8.01
2022-11-23T19:55:29.754Z,8.00
2022-11-23T19:57:51.554Z,7.98
2022-11-23T20:00:13.899Z,7.95
2022-11-23T20:02:35.845Z,7.94
2022-11-23T20:04:57.873Z,7.94
2022-11-23T20:07:20.151Z,7.92
2022-11-23T20:09:42.030Z,7.92
2022-11-23T20:12:04.000Z,7.92
2022-11-23T20:14:26.341Z,7.96
2022-11-23T20:16:48.356Z,7.98
2022-11-23T20:19:10.359Z,8.02
2022-11-23T20:21:34.192Z,8.05
2022-11-23T20:24:04.383Z,8.06
2022-11-23T20:26:29.298Z,8.02
2022-11-23T20:28:54.256Z,8.04
2022-11-23T20:31:20.716Z,8.04
2022-11-23T20:33:45.518Z,8.02
2022-11-23T20:36:15.418Z,8.02
2022-11-23T20:38:39.018Z,7.98
2022-11-23T20:41:00.876Z,7.96
2022-11-23T20:43:22.674Z,7.95
2022-11-23T20:45:44.831Z,7.92
2022-11-23T20:48:06.947Z,7.96
2022-11-23T20:50:29.033Z,7.98
2022-11-23T20:52:58.697Z,8.05
2022-11-23T20:55:23.457Z,8.11
2022-11-23T20:57:45.277Z,8.12
2022-11-23T21:00:08.438Z,8.17
2022-11-23T21:02:30.372Z,8.19
2022-11-23T21:04:52.196Z,8.21
2022-11-23T21:07:14.206Z,8.23
2022-11-23T21:09:36.400Z,8.26
2022-11-23T21:12:16.842Z,8.29
2022-11-23T21:14:38.841Z,8.33
2022-11-23T21:17:01.052Z,8.40
2022-11-23T21:19:32.722Z,8.45
2022-11-23T21:21:55.605Z,8.49
2022-11-23T21:24:17.971Z,8.53
2022-11-23T21:26:40.288Z,8.56
2022-11-23T21:29:04.187Z,8.60
2022-11-23T21:31:26.747Z,8.62
2022-11-23T21:33:53.893Z,8.64
2022-11-23T21:36:17.795Z,8.64
2022-11-23T21:38:40.853Z,8.66
2022-11-23T21:41:04.644Z,8.66
2022-11-23T21:43:26.493Z,8.69
2022-11-23T21:45:48.958Z,8.70
2022-11-23T21:48:10.919Z,8.72
2022-11-23T21:50:32.816Z,8.70
2022-11-23T21:52:54.670Z,8.65
2022-11-23T21:55:16.653Z,8.64
2022-11-23T21:57:38.824Z,8.64
2022-11-23T22:00:00.644Z,8.61
2022-11-23T22:02:22.601Z,8.59
2022-11-23T22:04:44.492Z,8.54
2022-11-23T22:07:06.372Z,8.52
2022-11-23T22:09:30.891Z,8.51
2022-11-23T22:11:53.103Z,8.49
2022-11-23T22:14:19.277Z,8.45
2022-11-23T22:16:49.730Z,8.42
2022-11-23T22:19:14.724Z,8.39
2022-11-23T22:21:38.326Z,8.38
2022-11-23T22:24:00.392Z,8.39
2022-11-23T22:26:22.734Z,8.39
2022-11-23T22:28:47.500Z,8.39
2022-11-23T22:31:14.459Z,8.39
2022-11-23T22:33:37.319Z,8.38
2022-11-23T22:36:08.579Z,8.38
2022-11-23T22:38:34.419Z,8.37
2022-11-23T22:40:56.229Z,8.38
2022-11-23T22:43:18.113Z,8.38
2022-11-23T22:45:40.043Z,8.39
2022-11-23T22:48:02.049Z,8.43
2022-11-23T22:50:24.007Z,8.47
2022-11-23T22:52:46.110Z,8.49
2022-11-23T22:55:08.508Z,8.47
2022-11-23T22:57:30.383Z,8.50
2022-11-23T22:59:53.308Z,8.46
2022-11-23T23:02:15.456Z,8.47
2022-11-23T23:04:37.898Z,8.46
2022-11-23T23:06:59.775Z,8.46
2022-11-23T23:09:21.616Z,8.44
2022-11-23T23:11:46.633Z,8.45
2022-11-23T23:14:11.189Z,8.45
2022-11-23T23:16:34.881Z,8.43
2022-11-23T23:18:58.304Z,8.45
2022-11-23T23:21:22.724Z,8.44
2022-11-23T23:23:49.481Z,8.47
2022-11-23T23:26:14.170Z,8.47
2022-11-23T23:28:36.441Z,8.48
2022-11-23T23:31:08.195Z,8.48
2022-11-23T23:33:32.658Z,8.48
2022-11-23T23:35:54.415Z,8.45
2022-11-23T23:38:16.261Z,8.46
2022-11-23T23:40:38.134Z,8.48
2022-11-23T23:42:59.976Z,8.48
2022-11-23T23:45:21.839Z,8.55
2022-11-23T23:47:43.675Z,8.59
2022-11-23T23:50:06.385Z,8.60
2022-11-23T23:52:28.162Z,8.62
2022-11-23T23:54:49.997Z,8.61
2022-11-23T23:57:12.420Z,8.62
2022-11-23T23:59:34.626Z,8.64
